Terminal Aerodrome Forecast
Issued by NWS

Home | Current Version | Previous Version | Text Only | Print | Product List | Glossary On
Versions: 1 2 3 4 5 6 7 8 9 10 11 12 13 14
000
FTUS44 KLZK 230500
TAFPBF
TAF
KPBF 230536Z 2306/2406 36003KT P6SM OVC250
     FM231400 06006KT P6SM SCT150 OVC250
     FM240000 00000KT P6SM SCT250=

USA.gov is the U.S. government's official web portal to all federal, state and local government web resources and services.